createdAt,value
2023-04-18T00:00:10.679Z,6.00
2023-04-18T00:02:45.325Z,6.00
2023-04-18T00:05:14.306Z,5.90
2023-04-18T00:07:42.305Z,5.80
2023-04-18T00:10:10.586Z,5.80
2023-04-18T00:12:39.120Z,5.80
2023-04-18T00:15:09.617Z,5.80
2023-04-18T00:17:39.741Z,5.90
2023-04-18T00:20:11.294Z,5.90
2023-04-18T00:22:42.429Z,6.00
2023-04-18T00:25:11.615Z,6.10
2023-04-18T00:27:40.407Z,6.10
2023-04-18T00:30:10.720Z,6.20
2023-04-18T00:32:39.719Z,6.20
2023-04-18T00:35:09.986Z,6.30
2023-04-18T00:37:38.250Z,6.40
2023-04-18T00:40:08.082Z,6.50
2023-04-18T00:42:36.145Z,6.50
2023-04-18T00:45:04.561Z,6.60
2023-04-18T00:47:33.406Z,6.70
2023-04-18T00:50:01.702Z,6.70
2023-04-18T00:52:33.725Z,6.80
2023-04-18T00:55:02.015Z,6.80
2023-04-18T00:57:31.278Z,6.90
2023-04-18T01:00:00.689Z,6.90
2023-04-18T01:02:31.564Z,6.90
2023-04-18T01:04:59.677Z,6.90
2023-04-18T01:07:28.307Z,6.90
2023-04-18T01:10:00.101Z,7.00
2023-04-18T01:12:28.927Z,7.10
2023-04-18T01:14:57.412Z,7.10
2023-04-18T01:17:28.633Z,7.20
2023-04-18T01:19:58.259Z,7.30
2023-04-18T01:22:28.146Z,7.30
2023-04-18T01:24:58.109Z,7.40
2023-04-18T01:27:26.193Z,7.40
2023-04-18T01:29:54.808Z,7.40
2023-04-18T01:32:23.264Z,7.40
2023-04-18T01:34:51.722Z,7.40
2023-04-18T01:37:20.049Z,7.40
2023-04-18T01:39:49.182Z,7.50
2023-04-18T01:42:21.892Z,7.50
2023-04-18T01:44:50.016Z,7.50
2023-04-18T01:47:18.002Z,7.40
2023-04-18T01:49:48.264Z,7.40
2023-04-18T01:52:17.311Z,7.40
2023-04-18T01:54:46.262Z,7.50
2023-04-18T01:57:14.445Z,7.50
2023-04-18T01:59:43.786Z,7.50
2023-04-18T02:02:12.270Z,7.50
2023-04-18T02:04:40.759Z,7.50
2023-04-18T02:07:11.344Z,7.50
2023-04-18T02:09:39.362Z,7.60
2023-04-18T02:12:08.723Z,7.60
2023-04-18T02:14:37.579Z,7.60
2023-04-18T02:17:07.145Z,7.60
2023-04-18T02:19:35.160Z,7.60
2023-04-18T02:22:03.545Z,7.60
2023-04-18T02:24:32.778Z,7.60
2023-04-18T02:27:00.875Z,7.60
2023-04-18T02:29:30.904Z,7.60
2023-04-18T02:31:59.268Z,7.60
2023-04-18T02:34:28.678Z,7.60
2023-04-18T02:36:56.720Z,7.50
2023-04-18T02:39:24.892Z,7.50
2023-04-18T02:41:52.838Z,7.50
2023-04-18T02:44:24.081Z,7.50
2023-04-18T02:46:52.183Z,7.50
2023-04-18T02:49:20.935Z,7.40
2023-04-18T02:51:50.623Z,7.50
2023-04-18T02:54:18.799Z,7.50
2023-04-18T02:56:57.936Z,7.50
2023-04-18T02:59:54.756Z,7.50
2023-04-18T03:02:59.474Z,7.50
2023-04-18T03:05:41.322Z,7.50
2023-04-18T03:08:11.398Z,7.50
2023-04-18T03:10:40.145Z,7.60
2023-04-18T03:13:09.831Z,7.50
2023-04-18T03:15:38.774Z,7.50
2023-04-18T03:18:09.267Z,7.50
2023-04-18T03:20:40.905Z,7.50
2023-04-18T03:23:11.209Z,7.60
2023-04-18T03:25:40.243Z,7.60
2023-04-18T03:28:08.517Z,7.60
2023-04-18T03:30:36.618Z,7.60
2023-04-18T03:33:06.726Z,7.60
2023-04-18T03:35:35.072Z,7.60
2023-04-18T03:38:03.535Z,7.70
2023-04-18T03:40:37.717Z,7.70
2023-04-18T03:43:13.001Z,7.70
2023-04-18T03:45:41.142Z,7.70
2023-04-18T03:48:09.424Z,7.70
2023-04-18T03:50:42.149Z,7.70
2023-04-18T03:53:12.077Z,7.70
2023-04-18T03:55:43.650Z,7.70
2023-04-18T03:58:14.372Z,7.70
2023-04-18T04:00:43.170Z,7.70
2023-04-18T04:03:12.771Z,7.70
2023-04-18T04:05:41.426Z,7.70
2023-04-18T04:08:09.731Z,7.70
2023-04-18T04:10:37.734Z,7.70
2023-04-18T04:13:07.777Z,7.70
2023-04-18T04:15:39.352Z,7.70
2023-04-18T04:18:10.803Z,7.60
2023-04-18T04:20:42.664Z,7.60
2023-04-18T04:23:15.186Z,7.60
2023-04-18T04:25:46.856Z,7.60
2023-04-18T04:28:31.539Z,7.60
2023-04-18T04:31:08.730Z,7.50
2023-04-18T04:33:38.756Z,7.70
2023-04-18T04:36:14.853Z,7.70
2023-04-18T04:38:45.641Z,7.70
2023-04-18T04:41:14.103Z,7.60
2023-04-18T04:43:44.204Z,7.60
2023-04-18T04:46:15.902Z,7.60
2023-04-18T04:48:44.612Z,7.60
2023-04-18T04:51:12.793Z,7.60
2023-04-18T04:53:40.948Z,7.60
2023-04-18T04:56:10.297Z,7.60
2023-04-18T04:58:40.549Z,7.60
2023-04-18T05:01:18.005Z,7.60
2023-04-18T05:03:46.978Z,7.50
2023-04-18T05:06:20.823Z,7.60
2023-04-18T05:08:49.364Z,7.60
2023-04-18T05:11:17.823Z,7.60
2023-04-18T05:13:45.862Z,7.60
2023-04-18T05:16:14.745Z,7.60
2023-04-18T05:18:44.149Z,7.60
2023-04-18T05:21:12.177Z,7.60
2023-04-18T05:23:40.983Z,7.60
2023-04-18T05:26:09.252Z,7.60
2023-04-18T05:28:38.372Z,7.60
2023-04-18T05:31:06.562Z,7.70
2023-04-18T05:33:34.880Z,7.70
2023-04-18T05:36:05.250Z,7.70
2023-04-18T05:38:33.276Z,7.70
2023-04-18T05:41:02.986Z,7.70
2023-04-18T05:43:31.082Z,7.70
2023-04-18T05:45:59.153Z,7.70
2023-04-18T05:48:27.413Z,7.60
2023-04-18T05:50:55.414Z,7.60
2023-04-18T05:53:24.997Z,7.50
2023-04-18T05:55:53.086Z,7.50
2023-04-18T05:58:21.065Z,7.50
2023-04-18T06:00:49.105Z,7.60
2023-04-18T06:03:17.534Z,7.60
2023-04-18T06:05:46.403Z,7.60
2023-04-18T06:08:14.335Z,7.60
2023-04-18T06:10:43.726Z,7.70
2023-04-18T06:13:11.716Z,7.70
2023-04-18T06:15:40.107Z,7.80
2023-04-18T06:18:09.020Z,7.80
2023-04-18T06:20:37.095Z,7.90
2023-04-18T06:23:05.596Z,8.00
2023-04-18T06:25:33.635Z,8.00
2023-04-18T06:28:03.276Z,8.00
2023-04-18T06:30:31.304Z,8.00
2023-04-18T06:33:00.153Z,8.00
2023-04-18T06:35:29.984Z,7.90
2023-04-18T06:37:58.794Z,7.90
2023-04-18T06:40:26.806Z,7.80
2023-04-18T06:42:55.825Z,7.90
2023-04-18T06:45:25.710Z,7.80
2023-04-18T06:47:53.996Z,7.90
2023-04-18T06:50:22.040Z,7.90
2023-04-18T06:52:50.760Z,8.00
2023-04-18T06:55:18.977Z,8.10
2023-04-18T06:57:47.385Z,8.30
2023-04-18T07:00:16.687Z,8.40
2023-04-18T07:02:46.594Z,8.60
2023-04-18T07:05:15.099Z,8.60
2023-04-18T07:07:43.657Z,8.70
2023-04-18T07:10:12.590Z,8.70
2023-04-18T07:12:40.619Z,8.80
2023-04-18T07:15:10.850Z,8.80
2023-04-18T07:17:39.132Z,8.90
2023-04-18T07:20:13.076Z,8.90
2023-04-18T07:22:43.109Z,8.80
2023-04-18T07:25:11.692Z,8.70
2023-04-18T07:27:39.628Z,8.60
2023-04-18T07:30:09.498Z,8.60
2023-04-18T07:32:37.587Z,8.70
2023-04-18T07:35:06.199Z,8.80
2023-04-18T07:37:36.021Z,8.90
2023-04-18T07:40:05.254Z,9.00
2023-04-18T07:42:33.303Z,9.00
2023-04-18T07:45:01.763Z,9.00
2023-04-18T07:47:31.555Z,9.00
2023-04-18T07:50:00.667Z,9.10
2023-04-18T07:52:28.772Z,9.20
2023-04-18T07:54:58.338Z,9.30
2023-04-18T07:57:26.399Z,9.30
2023-04-18T07:59:54.685Z,9.20
2023-04-18T08:02:22.919Z,9.20
2023-04-18T08:04:52.026Z,9.20
2023-04-18T08:07:20.366Z,9.20
2023-04-18T08:09:49.089Z,9.30
2023-04-18T08:12:18.485Z,9.30
2023-04-18T08:14:46.563Z,9.30
2023-04-18T08:17:14.567Z,9.30
2023-04-18T08:19:44.426Z,9.40
2023-04-18T08:22:12.973Z,9.40
2023-04-18T08:24:57.254Z,9.40
2023-04-18T08:27:31.662Z,9.50
2023-04-18T08:30:00.611Z,9.40
2023-04-18T08:32:28.890Z,9.40
2023-04-18T08:34:57.893Z,9.40
2023-04-18T08:37:27.865Z,9.40
2023-04-18T08:39:55.951Z,9.40
2023-04-18T08:42:25.178Z,9.40
2023-04-18T08:44:54.597Z,9.40
2023-04-18T08:47:22.991Z,9.30
2023-04-18T08:49:52.214Z,9.40
2023-04-18T08:52:23.828Z,9.40
2023-04-18T08:54:52.409Z,9.40
2023-04-18T08:57:26.723Z,9.50
2023-04-18T08:59:56.936Z,9.60
2023-04-18T09:02:39.135Z,9.80
2023-04-18T09:05:14.475Z,10.00
2023-04-18T09:07:43.916Z,10.10
2023-04-18T09:10:13.837Z,10.30
2023-04-18T09:12:50.059Z,10.50
2023-04-18T09:15:24.079Z,10.60
2023-04-18T09:17:54.088Z,10.70
2023-04-18T09:20:35.872Z,10.70
2023-04-18T09:23:05.728Z,10.80
2023-04-18T09:25:40.772Z,10.90
2023-04-18T09:28:26.932Z,11.00
2023-04-18T09:30:59.198Z,11.00
2023-04-18T09:33:32.403Z,11.00
2023-04-18T09:36:20.209Z,11.00
2023-04-18T09:38:49.433Z,10.90
2023-04-18T09:41:21.255Z,11.00
2023-04-18T09:43:50.223Z,10.90
2023-04-18T09:46:21.677Z,10.80
2023-04-18T09:48:50.287Z,10.80
2023-04-18T09:51:20.127Z,10.80
2023-04-18T09:53:50.266Z,10.80
2023-04-18T09:56:31.979Z,10.80
2023-04-18T09:59:08.747Z,10.80
2023-04-18T10:01:40.042Z,10.80
2023-04-18T10:04:08.579Z,10.90
2023-04-18T10:06:40.069Z,10.90
2023-04-18T10:09:10.864Z,10.90
2023-04-18T10:11:39.792Z,11.00
2023-04-18T10:14:13.862Z,11.00
2023-04-18T10:16:46.496Z,11.10
2023-04-18T10:19:27.374Z,11.20
2023-04-18T10:21:57.282Z,11.10
2023-04-18T10:24:53.412Z,11.10
2023-04-18T10:28:01.240Z,11.20
2023-04-18T10:30:53.854Z,11.20
2023-04-18T10:33:33.403Z,11.30
2023-04-18T10:36:06.379Z,11.30
2023-04-18T10:38:35.627Z,11.50
2023-04-18T10:41:23.659Z,11.60
2023-04-18T10:44:22.473Z,11.50
2023-04-18T10:47:33.637Z,11.70
2023-04-18T10:50:08.141Z,11.90
2023-04-18T10:52:36.561Z,12.10
2023-04-18T10:55:25.435Z,12.20
2023-04-18T10:57:56.097Z,12.40
2023-04-18T11:00:25.447Z,12.60
2023-04-18T11:02:57.806Z,12.70
2023-04-18T11:05:30.003Z,12.80
2023-04-18T11:07:58.428Z,13.10
2023-04-18T11:10:29.316Z,13.40
2023-04-18T11:13:04.884Z,13.50
2023-04-18T11:15:32.984Z,13.40
2023-04-18T11:18:03.952Z,13.40
2023-04-18T11:20:40.886Z,13.30
2023-04-18T11:23:19.580Z,13.30
2023-04-18T11:25:49.466Z,13.30
2023-04-18T11:28:21.797Z,13.60
2023-04-18T11:30:51.243Z,14.00
2023-04-18T11:33:19.258Z,14.60
2023-04-18T11:35:48.751Z,14.90
2023-04-18T11:38:18.745Z,15.00
2023-04-18T11:40:51.398Z,14.90
2023-04-18T11:43:22.637Z,14.80
2023-04-18T11:45:55.768Z,14.70
2023-04-18T11:48:24.319Z,14.60
2023-04-18T11:50:53.986Z,14.50
2023-04-18T11:53:34.555Z,14.60
2023-04-18T11:56:03.613Z,14.70
2023-04-18T11:58:33.160Z,14.80
2023-04-18T12:01:01.726Z,15.00
2023-04-18T12:03:30.290Z,14.90
2023-04-18T12:06:03.261Z,14.80
2023-04-18T12:08:33.038Z,14.70
2023-04-18T12:11:01.145Z,14.60
2023-04-18T12:13:36.308Z,14.70
2023-04-18T12:16:05.088Z,14.70
2023-04-18T12:18:33.214Z,14.70
2023-04-18T12:21:06.367Z,14.70
2023-04-18T12:23:38.843Z,14.80
2023-04-18T12:26:12.341Z,14.80
2023-04-18T12:28:41.368Z,14.70
2023-04-18T12:31:09.427Z,14.70
2023-04-18T12:33:37.494Z,14.60
2023-04-18T12:36:08.785Z,14.60
2023-04-18T12:38:37.298Z,14.60
2023-04-18T12:41:06.777Z,14.70
2023-04-18T12:43:34.879Z,14.60
2023-04-18T12:46:03.439Z,14.50
2023-04-18T12:48:31.430Z,14.50
2023-04-18T12:50:59.353Z,14.50
2023-04-18T12:53:29.098Z,14.60
2023-04-18T12:55:57.108Z,14.70
2023-04-18T12:58:25.175Z,15.30
2023-04-18T13:00:53.219Z,15.80
2023-04-18T13:03:21.476Z,16.00
2023-04-18T13:05:49.833Z,16.00
2023-04-18T13:08:18.283Z,15.70
2023-04-18T13:10:48.801Z,15.60
2023-04-18T13:13:16.863Z,15.50
2023-04-18T13:15:44.987Z,15.60
2023-04-18T13:18:13.014Z,15.30
2023-04-18T13:20:41.088Z,15.30
2023-04-18T13:23:09.637Z,15.30
2023-04-18T13:25:37.671Z,15.20
2023-04-18T13:28:07.468Z,15.00
2023-04-18T13:30:36.520Z,14.80
2023-04-18T13:33:04.782Z,14.80
2023-04-18T13:35:32.920Z,15.00
2023-04-18T13:38:01.672Z,15.20
2023-04-18T13:40:29.792Z,15.50
2023-04-18T13:42:57.840Z,15.80
2023-04-18T13:45:27.449Z,15.90
2023-04-18T13:47:56.029Z,15.90
2023-04-18T13:50:24.466Z,15.90
2023-04-18T13:52:54.416Z,15.80
2023-04-18T13:55:22.707Z,15.70
2023-04-18T13:57:50.992Z,15.50
2023-04-18T14:00:20.405Z,15.30
2023-04-18T14:02:50.883Z,15.20
2023-04-18T14:05:19.431Z,15.20
2023-04-18T14:07:48.524Z,15.30
2023-04-18T14:10:16.814Z,15.50
2023-04-18T14:12:45.207Z,15.50
2023-04-18T14:15:13.531Z,15.30
2023-04-18T14:17:44.120Z,15.20
2023-04-18T14:20:19.146Z,15.30
2023-04-18T14:22:47.437Z,15.60
2023-04-18T14:25:16.946Z,15.60
2023-04-18T14:27:50.048Z,15.70
2023-04-18T14:30:18.086Z,15.70
2023-04-18T14:32:46.158Z,15.80
2023-04-18T14:35:15.538Z,15.80
2023-04-18T14:37:44.005Z,15.80
2023-04-18T14:40:13.505Z,15.70
2023-04-18T14:42:41.556Z,15.80
2023-04-18T14:45:11.889Z,15.80
2023-04-18T14:47:40.057Z,15.80
2023-04-18T14:50:11.833Z,15.80
2023-04-18T14:52:41.672Z,15.90
2023-04-18T14:55:11.027Z,15.80
2023-04-18T14:57:39.982Z,15.70
2023-04-18T15:00:11.374Z,15.70
2023-04-18T15:02:39.977Z,15.60
2023-04-18T15:05:09.821Z,15.90
2023-04-18T15:07:37.987Z,16.10
2023-04-18T15:10:12.423Z,16.00
2023-04-18T15:12:41.509Z,15.90
2023-04-18T15:15:10.569Z,15.90
2023-04-18T15:17:38.671Z,15.90
2023-04-18T15:20:08.614Z,15.70
2023-04-18T15:22:37.178Z,15.50
2023-04-18T15:25:08.367Z,15.30
2023-04-18T15:27:36.685Z,15.20
2023-04-18T15:30:05.529Z,15.20
2023-04-18T15:32:33.595Z,15.20
2023-04-18T15:35:02.687Z,15.20
2023-04-18T15:37:30.706Z,15.30
2023-04-18T15:39:59.117Z,15.30
2023-04-18T15:42:29.166Z,15.40
2023-04-18T15:44:57.211Z,15.40
2023-04-18T15:47:26.059Z,15.50
2023-04-18T15:49:54.579Z,15.40
2023-04-18T15:52:22.588Z,15.30
2023-04-18T15:54:52.255Z,15.10
2023-04-18T15:57:21.025Z,15.20
2023-04-18T15:59:51.063Z,15.20
2023-04-18T16:02:19.312Z,15.20
2023-04-18T16:04:47.829Z,15.20
2023-04-18T16:07:16.472Z,15.20
2023-04-18T16:09:44.563Z,15.10
2023-04-18T16:12:13.643Z,14.90
2023-04-18T16:14:43.891Z,14.70
2023-04-18T16:17:13.284Z,14.50
2023-04-18T16:19:41.299Z,14.60
2023-04-18T16:22:10.533Z,14.40
2023-04-18T16:24:40.904Z,14.20
2023-04-18T16:27:10.192Z,14.20
2023-04-18T16:29:39.797Z,14.00
2023-04-18T16:32:09.043Z,13.90
2023-04-18T16:34:38.822Z,13.90
2023-04-18T16:37:07.446Z,13.80
2023-04-18T16:39:35.545Z,13.80
2023-04-18T16:42:03.950Z,13.80
2023-04-18T16:44:33.112Z,13.70
2023-04-18T16:47:01.574Z,13.70
2023-04-18T16:49:30.083Z,13.60
2023-04-18T16:51:59.695Z,13.60
2023-04-18T16:54:27.774Z,13.60
2023-04-18T16:56:56.223Z,13.50
2023-04-18T16:59:24.265Z,13.60
2023-04-18T17:01:52.329Z,13.50
2023-04-18T17:04:21.299Z,13.50
2023-04-18T17:06:51.874Z,13.50
2023-04-18T17:09:21.609Z,13.40
2023-04-18T17:11:50.838Z,13.40
2023-04-18T17:14:18.859Z,13.40
2023-04-18T17:16:48.237Z,13.40
2023-04-18T17:19:17.293Z,13.30
2023-04-18T17:21:46.284Z,13.30
2023-04-18T17:24:14.941Z,13.30
2023-04-18T17:26:44.987Z,13.30
2023-04-18T17:29:13.244Z,13.20
2023-04-18T17:31:42.127Z,13.20
2023-04-18T17:34:10.692Z,13.20
2023-04-18T17:36:39.220Z,13.20
2023-04-18T17:48:25.510Z,13.10
2023-04-18T17:50:53.525Z,13.00
2023-04-18T17:53:22.502Z,13.00
2023-04-18T17:55:52.229Z,13.00
2023-04-18T17:58:21.384Z,13.00
2023-04-18T18:00:49.843Z,12.90
2023-04-18T18:03:18.566Z,12.90
2023-04-18T18:05:50.387Z,12.80
2023-04-18T18:08:18.448Z,12.80
2023-04-18T18:10:47.408Z,12.80
2023-04-18T18:13:15.750Z,12.80
2023-04-18T18:15:43.789Z,12.80
2023-04-18T18:18:11.878Z,12.80
2023-04-18T18:20:42.951Z,12.70
2023-04-18T18:23:12.806Z,12.70
2023-04-18T18:25:41.570Z,12.70
2023-04-18T18:28:10.062Z,12.70
2023-04-18T18:30:38.275Z,12.60
2023-04-18T18:33:06.852Z,12.60
2023-04-18T18:35:35.977Z,12.60
2023-04-18T18:38:05.235Z,12.50
2023-04-18T18:40:34.646Z,12.40
2023-04-18T18:43:02.766Z,12.40
2023-04-18T18:45:30.943Z,12.40
2023-04-18T18:47:59.259Z,12.40
2023-04-18T18:50:27.260Z,12.30
2023-04-18T18:52:55.321Z,12.30
2023-04-18T18:55:23.589Z,12.30
2023-04-18T18:57:53.235Z,12.20
2023-04-18T19:00:21.997Z,12.20
2023-04-18T19:02:50.201Z,12.10
2023-04-18T19:05:19.377Z,12.10
2023-04-18T19:07:47.386Z,12.10
2023-04-18T19:10:15.632Z,12.10
2023-04-18T19:12:43.700Z,12.00
2023-04-18T19:15:16.291Z,12.00
2023-04-18T19:17:44.405Z,12.00
2023-04-18T19:20:12.751Z,12.00
2023-04-18T19:22:40.735Z,11.90
2023-04-18T19:25:11.729Z,11.80
2023-04-18T19:27:39.765Z,11.80
2023-04-18T19:30:09.272Z,11.70
2023-04-18T19:32:38.818Z,11.70
2023-04-18T19:35:09.863Z,11.70
2023-04-18T19:37:37.923Z,11.60
2023-04-18T19:40:07.984Z,11.60
2023-04-18T19:42:36.445Z,11.50
2023-04-18T19:45:05.663Z,11.50
2023-04-18T19:47:34.670Z,11.40
2023-04-18T19:50:04.412Z,11.40
2023-04-18T19:52:32.891Z,11.40
2023-04-18T19:55:01.050Z,11.30
2023-04-18T19:57:29.709Z,11.30
2023-04-18T19:59:57.724Z,11.30
2023-04-18T20:02:26.014Z,11.30
2023-04-18T20:04:56.686Z,11.20
2023-04-18T20:07:26.762Z,11.20
2023-04-18T20:09:54.791Z,11.20
2023-04-18T20:12:23.649Z,11.20
2023-04-18T20:14:52.118Z,11.20
2023-04-18T20:17:20.435Z,11.10
2023-04-18T20:19:49.696Z,11.10
2023-04-18T20:22:18.170Z,11.10
2023-04-18T20:24:48.733Z,11.10
2023-04-18T20:27:20.330Z,11.10
2023-04-18T20:29:48.361Z,11.00
2023-04-18T20:32:17.113Z,11.00
2023-04-18T20:34:45.740Z,11.00
2023-04-18T20:37:18.615Z,11.00
2023-04-18T20:39:48.401Z,11.00
2023-04-18T20:42:17.412Z,11.00
2023-04-18T20:44:46.723Z,10.90
2023-04-18T20:47:15.952Z,10.90
2023-04-18T20:49:44.619Z,10.90
2023-04-18T20:52:14.519Z,10.90
2023-04-18T20:54:42.612Z,10.90
2023-04-18T20:57:12.025Z,10.80
2023-04-18T20:59:40.572Z,10.80
2023-04-18T21:02:09.418Z,10.80
2023-04-18T21:04:37.725Z,10.80
2023-04-18T21:07:05.978Z,10.80
2023-04-18T21:09:36.524Z,10.80
2023-04-18T21:12:05.077Z,10.80
2023-04-18T21:14:34.463Z,10.80
2023-04-18T21:17:02.756Z,10.80
2023-04-18T21:19:30.810Z,10.80
2023-04-18T21:21:59.331Z,10.80
2023-04-18T21:24:27.332Z,10.80
2023-04-18T21:26:55.386Z,10.80
2023-04-18T21:29:23.425Z,10.80
2023-04-18T21:31:53.088Z,10.80
2023-04-18T21:34:21.386Z,10.80
2023-04-18T21:36:49.605Z,10.80
2023-04-18T21:39:17.822Z,10.80
2023-04-18T21:41:46.063Z,10.70
2023-04-18T21:44:14.729Z,10.70
2023-04-18T21:46:43.121Z,10.70
2023-04-18T21:49:12.451Z,10.70
2023-04-18T21:51:41.009Z,10.70
2023-04-18T21:54:09.020Z,10.60
2023-04-18T21:56:37.087Z,10.60
2023-04-18T21:59:05.702Z,10.60
2023-04-18T22:01:34.335Z,10.60
2023-04-18T22:04:03.224Z,10.60
2023-04-18T22:06:33.696Z,10.60
2023-04-18T22:09:02.312Z,10.60
2023-04-18T22:11:30.279Z,10.60
2023-04-18T22:14:00.447Z,10.60
2023-04-18T22:16:29.209Z,10.50
2023-04-18T22:18:57.727Z,10.50
2023-04-18T22:21:25.785Z,10.50
2023-04-18T22:23:55.149Z,10.50
2023-04-18T22:26:23.520Z,10.50
2023-04-18T22:28:51.949Z,10.50
2023-04-18T22:31:20.110Z,10.50
2023-04-18T22:33:48.699Z,10.50
2023-04-18T22:36:16.752Z,10.50
2023-04-18T22:38:45.179Z,10.50
2023-04-18T22:41:14.653Z,10.40
2023-04-18T22:43:42.936Z,10.40
2023-04-18T22:46:11.241Z,10.40
2023-04-18T22:48:39.293Z,10.40
2023-04-18T22:51:07.737Z,10.40
2023-04-18T22:53:35.744Z,10.40
2023-04-18T22:56:04.103Z,10.40
2023-04-18T22:58:33.865Z,10.30
2023-04-18T23:01:01.871Z,10.30
2023-04-18T23:03:32.300Z,10.30
2023-04-18T23:06:00.537Z,10.30
2023-04-18T23:08:29.219Z,10.30
2023-04-18T23:10:57.287Z,10.20
2023-04-18T23:13:25.886Z,10.20
2023-04-18T23:15:55.322Z,10.20
2023-04-18T23:18:23.351Z,10.20
2023-04-18T23:20:51.398Z,10.20
2023-04-18T23:23:19.426Z,10.20
2023-04-18T23:25:47.902Z,10.20
2023-04-18T23:28:17.105Z,10.10
2023-04-18T23:30:45.313Z,10.20
2023-04-18T23:33:14.706Z,10.10
2023-04-18T23:35:43.778Z,10.20
2023-04-18T23:38:12.095Z,10.10
2023-04-18T23:40:40.125Z,10.10
2023-04-18T23:43:08.416Z,10.10
2023-04-18T23:45:37.183Z,10.10
2023-04-18T23:48:07.605Z,10.00
2023-04-18T23:50:37.508Z,10.10
2023-04-18T23:53:06.055Z,10.00
2023-04-18T23:55:34.097Z,10.10
2023-04-18T23:58:02.309Z,10.10
